createdAt,value
2022-08-06T00:00:06.426Z,21.33
2022-08-06T00:05:06.549Z,21.37
2022-08-06T00:10:09.190Z,21.41
2022-08-06T00:15:14.466Z,21.44
2022-08-06T00:20:30.037Z,21.49
2022-08-06T00:25:35.573Z,21.58
2022-08-06T00:30:38.187Z,21.64
2022-08-06T00:35:40.230Z,21.67
2022-08-06T00:40:50.525Z,21.66
2022-08-06T00:46:00.673Z,21.63
2022-08-06T00:51:03.654Z,21.52
2022-08-06T00:56:08.939Z,21.36
2022-08-06T01:01:17.460Z,21.28
2022-08-06T01:06:53.928Z,21.19
2022-08-06T01:11:43.068Z,21.08
2022-08-06T01:16:48.995Z,20.95
2022-08-06T01:21:59.509Z,20.88
2022-08-06T01:27:23.046Z,20.86
2022-08-06T01:32:42.730Z,20.81
2022-08-06T01:38:00.873Z,20.75
2022-08-06T01:43:22.798Z,20.74
2022-08-06T01:48:28.596Z,20.73
2022-08-06T01:54:05.910Z,20.70
2022-08-06T01:58:58.880Z,20.64
2022-08-06T02:04:01.338Z,20.62
2022-08-06T02:09:22.823Z,20.58
2022-08-06T02:14:29.916Z,20.49
2022-08-06T02:19:48.076Z,20.45
2022-08-06T02:25:02.661Z,20.41
2022-08-06T02:30:07.192Z,20.36
2022-08-06T02:35:10.063Z,20.36
2022-08-06T02:40:20.604Z,20.25
2022-08-06T02:45:58.516Z,20.14
2022-08-06T02:51:29.601Z,20.00
2022-08-06T02:56:29.689Z,19.88
2022-08-06T03:01:43.534Z,19.76
2022-08-06T03:06:47.459Z,19.63
2022-08-06T03:11:51.108Z,19.50
2022-08-06T03:16:57.680Z,19.29
2022-08-06T03:22:01.158Z,19.00
2022-08-06T03:27:07.762Z,18.79
2022-08-06T03:32:36.103Z,18.65
2022-08-06T03:37:59.523Z,18.50
2022-08-06T03:42:56.673Z,18.40
2022-08-06T03:48:07.449Z,18.18
2022-08-06T03:53:28.834Z,17.96
2022-08-06T03:58:32.596Z,17.85
2022-08-06T04:03:39.905Z,17.76
2022-08-06T04:08:42.449Z,17.65
2022-08-06T04:14:07.643Z,17.57
2022-08-06T04:19:15.754Z,17.54
2022-08-06T04:24:18.148Z,17.45
2022-08-06T04:29:23.485Z,17.36
2022-08-06T04:34:28.532Z,17.14
2022-08-06T04:39:38.041Z,16.88
2022-08-06T04:44:56.010Z,16.63
2022-08-06T04:50:07.430Z,16.33
2022-08-06T04:55:24.216Z,16.00
2022-08-06T05:00:33.417Z,15.72
2022-08-06T05:05:40.486Z,15.56
2022-08-06T05:10:50.104Z,15.44
2022-08-06T05:15:56.166Z,15.39
2022-08-06T05:20:59.720Z,15.42
2022-08-06T05:26:02.236Z,15.46
2022-08-06T05:31:04.221Z,15.48
2022-08-06T05:36:11.936Z,15.48
2022-08-06T05:41:21.980Z,15.51
2022-08-06T05:46:25.720Z,15.59
2022-08-06T05:51:45.563Z,15.62
2022-08-06T05:56:53.695Z,15.60
2022-08-06T06:01:58.662Z,15.63
2022-08-06T06:07:08.801Z,15.64
2022-08-06T06:12:12.700Z,15.65
2022-08-06T06:17:38.953Z,15.65
2022-08-06T06:22:46.824Z,15.66
2022-08-06T06:28:12.642Z,15.69
2022-08-06T06:34:06.650Z,15.73
2022-08-06T06:39:25.901Z,15.80
2022-08-06T06:46:05.387Z,15.92
2022-08-06T06:50:31.041Z,16.02
2022-08-06T06:55:57.309Z,16.11
2022-08-06T07:01:11.709Z,16.17
2022-08-06T07:06:31.738Z,16.20
2022-08-06T07:12:02.327Z,16.22
2022-08-06T07:17:43.662Z,16.20
2022-08-06T07:22:26.289Z,16.23
2022-08-06T07:27:41.848Z,16.22
2022-08-06T07:32:49.409Z,16.26
2022-08-06T07:38:04.732Z,16.31
2022-08-06T07:43:23.878Z,16.36
2022-08-06T07:48:33.364Z,16.41
2022-08-06T07:53:52.492Z,16.52
2022-08-06T07:59:06.676Z,16.68
2022-08-06T08:04:34.276Z,16.76
2022-08-06T08:10:01.753Z,16.79
2022-08-06T08:15:19.185Z,16.90
2022-08-06T08:20:36.476Z,16.98
2022-08-06T08:25:50.735Z,17.10
2022-08-06T08:30:54.753Z,17.23
2022-08-06T08:36:00.726Z,17.43
2022-08-06T08:41:22.275Z,17.63
2022-08-06T08:46:31.117Z,17.91
2022-08-06T08:51:42.352Z,18.16
2022-08-06T08:57:09.689Z,18.38
2022-08-06T09:02:16.982Z,18.47
2022-08-06T09:07:25.817Z,18.51
2022-08-06T09:12:45.400Z,18.52
2022-08-06T09:18:26.198Z,18.57
2022-08-06T09:23:16.640Z,18.53
2022-08-06T09:28:41.238Z,18.65
2022-08-06T09:34:30.227Z,18.82
2022-08-06T09:39:59.932Z,19.55
2022-08-06T09:45:16.364Z,20.07
2022-08-06T09:50:37.236Z,20.15
2022-08-06T09:55:41.493Z,20.43
2022-08-06T10:00:50.883Z,20.69
2022-08-06T10:06:04.273Z,20.83
2022-08-06T10:11:07.711Z,20.88
2022-08-06T10:16:29.088Z,20.79
2022-08-06T10:21:41.121Z,21.00
2022-08-06T10:26:44.885Z,21.59
2022-08-06T10:31:52.917Z,21.79
2022-08-06T10:36:59.982Z,21.97
2022-08-06T10:42:16.378Z,21.94
2022-08-06T10:48:59.813Z,22.12
2022-08-06T10:52:49.635Z,22.23
2022-08-06T10:57:52.276Z,21.98
2022-08-06T11:03:18.388Z,21.75
2022-08-06T11:08:45.286Z,21.91
2022-08-06T11:14:18.970Z,22.19
2022-08-06T11:19:56.462Z,22.30
2022-08-06T11:25:00.094Z,22.17
2022-08-06T11:30:13.109Z,21.95
2022-08-06T11:35:49.132Z,21.83
2022-08-06T11:41:09.685Z,22.29
2022-08-06T11:46:35.638Z,22.64
2022-08-06T11:52:03.942Z,22.06
2022-08-06T11:57:11.797Z,22.28
2022-08-06T12:02:37.806Z,22.98
2022-08-06T12:07:48.618Z,23.24
2022-08-06T12:12:53.651Z,23.24
2022-08-06T12:18:19.038Z,23.50
2022-08-06T12:23:23.558Z,23.86
2022-08-06T12:28:51.048Z,23.53
2022-08-06T12:33:53.286Z,23.12
2022-08-06T12:38:59.696Z,23.42
2022-08-06T12:44:06.534Z,23.62
2022-08-06T12:49:10.316Z,23.74
2022-08-06T12:54:26.119Z,23.98
2022-08-06T12:59:29.172Z,24.13
2022-08-06T13:04:48.863Z,23.95
2022-08-06T13:10:16.922Z,24.00
2022-08-06T13:15:18.445Z,24.27
2022-08-06T13:20:41.986Z,24.12
2022-08-06T13:25:53.038Z,23.69
2022-08-06T13:30:57.747Z,23.63
2022-08-06T13:36:08.269Z,23.59
2022-08-06T13:41:37.280Z,23.01
2022-08-06T13:46:44.374Z,22.73
2022-08-06T13:51:55.455Z,22.96
2022-08-06T13:57:00.022Z,23.05
2022-08-06T14:02:03.841Z,23.16
2022-08-06T14:07:06.757Z,23.61
2022-08-06T14:12:13.128Z,23.99
2022-08-06T14:17:19.559Z,24.15
2022-08-06T14:22:26.212Z,24.17
2022-08-06T14:27:31.149Z,23.69
2022-08-06T14:32:45.907Z,23.20
2022-08-06T14:37:52.185Z,23.39
2022-08-06T14:43:17.289Z,23.57
2022-08-06T14:48:19.296Z,23.53
2022-08-06T14:53:22.340Z,23.22
2022-08-06T14:58:24.601Z,23.06
2022-08-06T15:03:33.927Z,23.12
2022-08-06T15:08:36.835Z,23.35
2022-08-06T15:13:51.431Z,23.66
2022-08-06T15:19:30.358Z,23.66
2022-08-06T15:24:18.463Z,23.39
2022-08-06T15:29:27.493Z,23.31
2022-08-06T15:34:37.876Z,23.16
2022-08-06T15:39:52.316Z,23.14
2022-08-06T15:44:58.025Z,23.25
2022-08-06T15:50:04.730Z,23.32
2022-08-06T15:55:14.981Z,23.48
2022-08-06T16:00:23.067Z,23.48
2022-08-06T16:05:32.606Z,23.33
2022-08-06T16:11:02.280Z,23.14
2022-08-06T16:16:16.679Z,23.02
2022-08-06T16:21:33.895Z,22.91
2022-08-06T16:26:41.937Z,22.87
2022-08-06T16:31:53.864Z,22.94
2022-08-06T16:36:59.960Z,23.02
2022-08-06T16:42:05.549Z,22.90
2022-08-06T16:47:08.275Z,22.85
2022-08-06T16:52:42.186Z,22.93
2022-08-06T16:57:39.651Z,23.04
2022-08-06T17:02:45.197Z,23.63
2022-08-06T17:07:53.898Z,24.09
2022-08-06T17:13:02.191Z,24.89
2022-08-06T17:18:05.982Z,25.47
2022-08-06T17:23:08.482Z,25.80
2022-08-06T17:28:14.138Z,26.03
2022-08-06T17:33:16.447Z,26.18
2022-08-06T17:38:19.209Z,26.02
2022-08-06T17:43:55.066Z,25.34
2022-08-06T17:48:46.097Z,24.56
2022-08-06T17:53:52.561Z,23.64
2022-08-06T17:59:10.904Z,22.78
2022-08-06T18:04:22.641Z,22.03
2022-08-06T18:10:11.114Z,21.38
2022-08-06T18:14:57.179Z,20.80
2022-08-06T18:20:01.828Z,20.33
2022-08-06T18:25:04.278Z,19.88
2022-08-06T18:30:30.188Z,19.44
2022-08-06T18:35:55.425Z,18.99
2022-08-06T18:41:05.716Z,18.57
2022-08-06T18:46:16.984Z,18.20
2022-08-06T18:51:40.979Z,17.87
2022-08-06T18:56:48.836Z,17.59
2022-08-06T19:01:52.078Z,17.27
2022-08-06T19:06:54.031Z,16.94
2022-08-06T19:11:57.760Z,16.58
2022-08-06T19:17:07.936Z,16.23
2022-08-06T19:22:10.517Z,16.09
2022-08-06T19:28:07.285Z,17.28
2022-08-06T19:32:49.281Z,18.19
2022-08-06T19:37:59.498Z,18.38
2022-08-06T19:44:25.673Z,17.43
2022-08-06T19:48:29.124Z,16.78
2022-08-06T19:53:32.757Z,16.37
2022-08-06T19:58:35.135Z,16.49
2022-08-06T20:03:39.836Z,17.79
2022-08-06T20:08:42.461Z,18.55
2022-08-06T20:13:44.357Z,18.26
2022-08-06T20:18:47.252Z,16.94
2022-08-06T20:23:53.356Z,16.45
2022-08-06T20:29:20.410Z,17.31
2022-08-06T20:34:29.076Z,17.77
2022-08-06T20:39:32.160Z,17.48
2022-08-06T20:44:36.416Z,16.31
2022-08-06T20:50:03.337Z,15.96
2022-08-06T20:55:01.916Z,16.91
2022-08-06T21:00:28.475Z,17.35
2022-08-06T21:05:38.069Z,17.38
2022-08-06T21:10:49.738Z,17.25
2022-08-06T21:16:05.503Z,17.51
2022-08-06T21:21:17.110Z,17.78
2022-08-06T21:26:25.264Z,17.63
2022-08-06T21:31:31.924Z,16.54
2022-08-06T21:36:34.322Z,16.17
2022-08-06T21:41:55.016Z,16.91
2022-08-06T21:47:00.163Z,17.23
2022-08-06T21:52:03.104Z,16.40
2022-08-06T21:57:12.139Z,16.00
2022-08-06T22:02:26.645Z,16.90
2022-08-06T22:08:06.611Z,17.31
2022-08-06T22:13:11.848Z,16.45
2022-08-06T22:18:18.945Z,16.12
2022-08-06T22:23:32.994Z,17.20
2022-08-06T22:28:41.195Z,16.79
2022-08-06T22:33:59.010Z,16.25
2022-08-06T22:39:07.399Z,15.91
2022-08-06T22:44:14.755Z,16.17
2022-08-06T22:49:36.917Z,17.09
2022-08-06T22:54:58.405Z,16.41
2022-08-06T23:00:10.956Z,15.85
2022-08-06T23:05:20.172Z,16.02
2022-08-06T23:10:22.009Z,17.08
2022-08-06T23:15:39.407Z,16.68
2022-08-06T23:20:47.182Z,15.95
2022-08-06T23:26:00.167Z,15.57
2022-08-06T23:31:05.841Z,15.80
2022-08-06T23:36:08.045Z,16.99
2022-08-06T23:41:16.403Z,16.67
2022-08-06T23:46:28.090Z,15.80
2022-08-06T23:52:01.111Z,15.55
2022-08-06T23:56:57.654Z,16.50
